sensor_id;sensor_type;location;lat;lon;timestamp;P1;durP1;ratioP1;P2;durP2;ratioP2
76171;SDS011;64929;51.178;4.138;2023-03-14T00:01:56;4.28;;;0.73;;
76171;SDS011;64929;51.178;4.138;2023-03-14T00:04:22;3.55;;;0.50;;
76171;SDS011;64929;51.178;4.138;2023-03-14T00:06:47;2.80;;;0.63;;
76171;SDS011;64929;51.178;4.138;2023-03-14T00:09:15;2.65;;;0.43;;
76171;SDS011;64929;51.178;4.138;2023-03-14T00:11:43;3.70;;;0.57;;
76171;SDS011;64929;51.178;4.138;2023-03-14T00:14:09;4.60;;;0.93;;
76171;SDS011;64929;51.178;4.138;2023-03-14T00:16:35;2.78;;;0.77;;
76171;SDS011;64929;51.178;4.138;2023-03-14T00:19:00;1.90;;;0.43;;
76171;SDS011;64929;51.178;4.138;2023-03-14T00:21:26;3.47;;;0.52;;
76171;SDS011;64929;51.178;4.138;2023-03-14T00:23:52;3.55;;;0.60;;
76171;SDS011;64929;51.178;4.138;2023-03-14T00:26:18;4.43;;;0.50;;
76171;SDS011;64929;51.178;4.138;2023-03-14T00:28:46;1.65;;;0.40;;
76171;SDS011;64929;51.178;4.138;2023-03-14T00:31:15;2.38;;;0.40;;
76171;SDS011;64929;51.178;4.138;2023-03-14T00:33:42;4.05;;;0.43;;
76171;SDS011;64929;51.178;4.138;2023-03-14T00:36:09;1.52;;;0.28;;
76171;SDS011;64929;51.178;4.138;2023-03-14T00:38:37;3.97;;;0.50;;
76171;SDS011;64929;51.178;4.138;2023-03-14T00:41:04;2.40;;;0.55;;
76171;SDS011;64929;51.178;4.138;2023-03-14T00:43:31;2.15;;;0.70;;
76171;SDS011;64929;51.178;4.138;2023-03-14T00:45:57;0.90;;;0.47;;
76171;SDS011;64929;51.178;4.138;2023-03-14T00:48:23;3.45;;;0.52;;
76171;SDS011;64929;51.178;4.138;2023-03-14T00:50:49;3.75;;;1.15;;
76171;SDS011;64929;51.178;4.138;2023-03-14T00:53:15;0.80;;;0.22;;
76171;SDS011;64929;51.178;4.138;2023-03-14T00:55:42;2.03;;;0.68;;
76171;SDS011;64929;51.178;4.138;2023-03-14T00:58:08;3.58;;;0.60;;
76171;SDS011;64929;51.178;4.138;2023-03-14T01:00:35;3.95;;;0.75;;
76171;SDS011;64929;51.178;4.138;2023-03-14T01:03:01;3.10;;;0.50;;
76171;SDS011;64929;51.178;4.138;2023-03-14T01:05:27;3.03;;;0.90;;
76171;SDS011;64929;51.178;4.138;2023-03-14T01:07:53;1.58;;;0.47;;
76171;SDS011;64929;51.178;4.138;2023-03-14T01:10:19;4.03;;;0.80;;
76171;SDS011;64929;51.178;4.138;2023-03-14T01:12:45;3.38;;;0.90;;
76171;SDS011;64929;51.178;4.138;2023-03-14T01:15:11;5.28;;;0.60;;
76171;SDS011;64929;51.178;4.138;2023-03-14T01:17:36;6.53;;;0.65;;
76171;SDS011;64929;51.178;4.138;2023-03-14T01:20:06;4.47;;;0.75;;
76171;SDS011;64929;51.178;4.138;2023-03-14T01:22:36;2.72;;;0.63;;
76171;SDS011;64929;51.178;4.138;2023-03-14T01:25:04;4.55;;;0.73;;
76171;SDS011;64929;51.178;4.138;2023-03-14T01:27:30;8.02;;;0.70;;
76171;SDS011;64929;51.178;4.138;2023-03-14T01:29:55;3.85;;;0.88;;
76171;SDS011;64929;51.178;4.138;2023-03-14T01:32:21;2.10;;;0.60;;
76171;SDS011;64929;51.178;4.138;2023-03-14T01:34:47;2.60;;;0.40;;
76171;SDS011;64929;51.178;4.138;2023-03-14T01:37:12;2.85;;;0.75;;
76171;SDS011;64929;51.178;4.138;2023-03-14T01:39:38;2.55;;;0.40;;
76171;SDS011;64929;51.178;4.138;2023-03-14T01:42:04;2.63;;;0.88;;
76171;SDS011;64929;51.178;4.138;2023-03-14T01:47:18;7.03;;;0.90;;
76171;SDS011;64929;51.178;4.138;2023-03-14T01:49:45;2.55;;;0.85;;
76171;SDS011;64929;51.178;4.138;2023-03-14T01:55:15;3.45;;;0.60;;
76171;SDS011;64929;51.178;4.138;2023-03-14T01:57:44;3.13;;;0.70;;
76171;SDS011;64929;51.178;4.138;2023-03-14T02:00:15;5.70;;;0.80;;
76171;SDS011;64929;51.178;4.138;2023-03-14T02:02:44;2.80;;;0.60;;
76171;SDS011;64929;51.178;4.138;2023-03-14T02:05:12;5.15;;;0.75;;
76171;SDS011;64929;51.178;4.138;2023-03-14T02:07:43;2.58;;;0.50;;
76171;SDS011;64929;51.178;4.138;2023-03-14T02:10:14;2.95;;;0.70;;
76171;SDS011;64929;51.178;4.138;2023-03-14T02:12:41;3.05;;;0.40;;
76171;SDS011;64929;51.178;4.138;2023-03-14T02:15:07;4.13;;;0.47;;
76171;SDS011;64929;51.178;4.138;2023-03-14T02:17:33;2.97;;;0.68;;
76171;SDS011;64929;51.178;4.138;2023-03-14T02:22:50;6.45;;;0.80;;
76171;SDS011;64929;51.178;4.138;2023-03-14T02:25:17;0.95;;;0.25;;
76171;SDS011;64929;51.178;4.138;2023-03-14T02:27:52;5.07;;;0.80;;
76171;SDS011;64929;51.178;4.138;2023-03-14T02:30:22;2.70;;;0.63;;
76171;SDS011;64929;51.178;4.138;2023-03-14T02:32:54;3.08;;;0.32;;
76171;SDS011;64929;51.178;4.138;2023-03-14T02:35:27;4.03;;;0.80;;
76171;SDS011;64929;51.178;4.138;2023-03-14T02:38:07;0.98;;;0.30;;
76171;SDS011;64929;51.178;4.138;2023-03-14T02:40:41;0.77;;;0.40;;
76171;SDS011;64929;51.178;4.138;2023-03-14T02:43:07;2.55;;;0.90;;
76171;SDS011;64929;51.178;4.138;2023-03-14T02:45:34;1.98;;;0.40;;
76171;SDS011;64929;51.178;4.138;2023-03-14T02:48:10;2.65;;;0.35;;
76171;SDS011;64929;51.178;4.138;2023-03-14T02:50:40;2.85;;;0.40;;
76171;SDS011;64929;51.178;4.138;2023-03-14T02:53:06;2.10;;;0.73;;
76171;SDS011;64929;51.178;4.138;2023-03-14T02:55:32;1.85;;;0.73;;
76171;SDS011;64929;51.178;4.138;2023-03-14T02:57:58;1.77;;;0.30;;
76171;SDS011;64929;51.178;4.138;2023-03-14T03:00:24;3.78;;;0.52;;
76171;SDS011;64929;51.178;4.138;2023-03-14T03:02:50;0.60;;;0.40;;
76171;SDS011;64929;51.178;4.138;2023-03-14T03:05:15;1.58;;;0.73;;
76171;SDS011;64929;51.178;4.138;2023-03-14T03:07:41;2.58;;;0.40;;
76171;SDS011;64929;51.178;4.138;2023-03-14T03:10:07;0.10;;;0.10;;
76171;SDS011;64929;51.178;4.138;2023-03-14T03:12:33;4.88;;;0.50;;
76171;SDS011;64929;51.178;4.138;2023-03-14T03:14:59;0.43;;;0.20;;
76171;SDS011;64929;51.178;4.138;2023-03-14T03:17:25;2.42;;;0.75;;
76171;SDS011;64929;51.178;4.138;2023-03-14T03:19:50;4.00;;;0.65;;
76171;SDS011;64929;51.178;4.138;2023-03-14T03:22:16;2.80;;;0.47;;
76171;SDS011;64929;51.178;4.138;2023-03-14T03:24:42;3.97;;;0.70;;
76171;SDS011;64929;51.178;4.138;2023-03-14T03:27:08;1.45;;;0.50;;
76171;SDS011;64929;51.178;4.138;2023-03-14T03:29:33;4.00;;;0.68;;
76171;SDS011;64929;51.178;4.138;2023-03-14T03:31:59;6.10;;;0.82;;
76171;SDS011;64929;51.178;4.138;2023-03-14T03:34:25;3.13;;;1.05;;
76171;SDS011;64929;51.178;4.138;2023-03-14T03:36:55;2.53;;;0.90;;
76171;SDS011;64929;51.178;4.138;2023-03-14T03:39:21;5.03;;;0.60;;
76171;SDS011;64929;51.178;4.138;2023-03-14T03:41:47;3.15;;;0.82;;
76171;SDS011;64929;51.178;4.138;2023-03-14T03:44:13;5.75;;;1.02;;
76171;SDS011;64929;51.178;4.138;2023-03-14T03:46:38;6.75;;;1.15;;
76171;SDS011;64929;51.178;4.138;2023-03-14T03:49:04;4.72;;;1.10;;
76171;SDS011;64929;51.178;4.138;2023-03-14T03:51:29;3.85;;;1.35;;
76171;SDS011;64929;51.178;4.138;2023-03-14T03:53:55;3.53;;;0.80;;
76171;SDS011;64929;51.178;4.138;2023-03-14T03:56:22;5.25;;;1.02;;
76171;SDS011;64929;51.178;4.138;2023-03-14T03:58:47;5.55;;;1.10;;
76171;SDS011;64929;51.178;4.138;2023-03-14T04:01:13;5.05;;;0.93;;
76171;SDS011;64929;51.178;4.138;2023-03-14T04:03:39;2.85;;;0.98;;
76171;SDS011;64929;51.178;4.138;2023-03-14T04:06:06;4.57;;;0.88;;
76171;SDS011;64929;51.178;4.138;2023-03-14T04:08:36;7.63;;;1.85;;
76171;SDS011;64929;51.178;4.138;2023-03-14T04:11:03;4.97;;;1.77;;
76171;SDS011;64929;51.178;4.138;2023-03-14T04:13:29;3.65;;;1.20;;
76171;SDS011;64929;51.178;4.138;2023-03-14T04:15:55;4.60;;;1.15;;
76171;SDS011;64929;51.178;4.138;2023-03-14T04:18:21;3.80;;;1.67;;
76171;SDS011;64929;51.178;4.138;2023-03-14T04:20:53;4.38;;;1.52;;
76171;SDS011;64929;51.178;4.138;2023-03-14T04:23:19;5.93;;;1.45;;
76171;SDS011;64929;51.178;4.138;2023-03-14T04:25:46;5.55;;;1.58;;
76171;SDS011;64929;51.178;4.138;2023-03-14T04:28:12;3.53;;;1.42;;
76171;SDS011;64929;51.178;4.138;2023-03-14T04:30:37;3.28;;;1.27;;
76171;SDS011;64929;51.178;4.138;2023-03-14T04:33:03;6.80;;;2.33;;
76171;SDS011;64929;51.178;4.138;2023-03-14T04:35:31;4.63;;;1.98;;
76171;SDS011;64929;51.178;4.138;2023-03-14T04:37:57;6.20;;;1.48;;
76171;SDS011;64929;51.178;4.138;2023-03-14T04:40:24;4.43;;;2.08;;
76171;SDS011;64929;51.178;4.138;2023-03-14T04:42:50;4.80;;;1.92;;
76171;SDS011;64929;51.178;4.138;2023-03-14T04:45:15;5.65;;;1.70;;
76171;SDS011;64929;51.178;4.138;2023-03-14T04:47:41;7.40;;;2.05;;
76171;SDS011;64929;51.178;4.138;2023-03-14T04:50:08;5.65;;;1.95;;
76171;SDS011;64929;51.178;4.138;2023-03-14T04:52:34;3.92;;;1.98;;
76171;SDS011;64929;51.178;4.138;2023-03-14T04:55:00;4.88;;;2.05;;
76171;SDS011;64929;51.178;4.138;2023-03-14T04:57:26;4.78;;;2.30;;
76171;SDS011;64929;51.178;4.138;2023-03-14T04:59:52;7.07;;;2.30;;
76171;SDS011;64929;51.178;4.138;2023-03-14T05:02:18;5.55;;;2.10;;
76171;SDS011;64929;51.178;4.138;2023-03-14T05:04:43;6.43;;;1.92;;
76171;SDS011;64929;51.178;4.138;2023-03-14T05:07:09;3.80;;;2.05;;
76171;SDS011;64929;51.178;4.138;2023-03-14T05:09:35;4.88;;;1.58;;
76171;SDS011;64929;51.178;4.138;2023-03-14T05:12:00;5.68;;;2.08;;
76171;SDS011;64929;51.178;4.138;2023-03-14T05:14:26;5.00;;;2.05;;
76171;SDS011;64929;51.178;4.138;2023-03-14T05:16:52;4.95;;;1.83;;
76171;SDS011;64929;51.178;4.138;2023-03-14T05:19:17;4.50;;;1.95;;
76171;SDS011;64929;51.178;4.138;2023-03-14T05:21:43;7.05;;;1.58;;
76171;SDS011;64929;51.178;4.138;2023-03-14T05:24:08;5.05;;;1.33;;
76171;SDS011;64929;51.178;4.138;2023-03-14T05:26:34;3.75;;;1.40;;
76171;SDS011;64929;51.178;4.138;2023-03-14T05:29:00;5.03;;;1.10;;
76171;SDS011;64929;51.178;4.138;2023-03-14T05:31:26;1.75;;;1.00;;
76171;SDS011;64929;51.178;4.138;2023-03-14T05:33:51;2.60;;;1.08;;
76171;SDS011;64929;51.178;4.138;2023-03-14T05:36:17;3.17;;;1.40;;
76171;SDS011;64929;51.178;4.138;2023-03-14T05:38:43;2.42;;;1.02;;
76171;SDS011;64929;51.178;4.138;2023-03-14T05:41:08;3.00;;;1.02;;
76171;SDS011;64929;51.178;4.138;2023-03-14T05:43:34;1.55;;;1.00;;
76171;SDS011;64929;51.178;4.138;2023-03-14T05:46:00;2.90;;;1.33;;
76171;SDS011;64929;51.178;4.138;2023-03-14T05:48:25;3.17;;;1.00;;
76171;SDS011;64929;51.178;4.138;2023-03-14T05:50:55;4.97;;;1.20;;
76171;SDS011;64929;51.178;4.138;2023-03-14T05:53:21;5.88;;;1.48;;
76171;SDS011;64929;51.178;4.138;2023-03-14T05:55:47;1.85;;;1.27;;
76171;SDS011;64929;51.178;4.138;2023-03-14T05:58:15;3.60;;;1.73;;
76171;SDS011;64929;51.178;4.138;2023-03-14T06:00:41;3.10;;;1.10;;
76171;SDS011;64929;51.178;4.138;2023-03-14T06:03:06;5.57;;;1.40;;
76171;SDS011;64929;51.178;4.138;2023-03-14T06:05:36;2.75;;;1.05;;
76171;SDS011;64929;51.178;4.138;2023-03-14T06:08:04;3.75;;;1.52;;
76171;SDS011;64929;51.178;4.138;2023-03-14T06:10:52;3.08;;;1.10;;
76171;SDS011;64929;51.178;4.138;2023-03-14T06:13:17;3.88;;;1.92;;
76171;SDS011;64929;51.178;4.138;2023-03-14T06:15:44;1.08;;;0.70;;
76171;SDS011;64929;51.178;4.138;2023-03-14T06:18:09;2.90;;;0.50;;
76171;SDS011;64929;51.178;4.138;2023-03-14T06:20:35;3.50;;;0.85;;
76171;SDS011;64929;51.178;4.138;2023-03-14T06:23:04;1.88;;;0.40;;
76171;SDS011;64929;51.178;4.138;2023-03-14T06:25:31;4.05;;;0.43;;
76171;SDS011;64929;51.178;4.138;2023-03-14T06:27:57;3.13;;;0.60;;
76171;SDS011;64929;51.178;4.138;2023-03-14T06:30:22;7.03;;;0.50;;
76171;SDS011;64929;51.178;4.138;2023-03-14T06:32:48;3.30;;;0.60;;
76171;SDS011;64929;51.178;4.138;2023-03-14T06:35:14;1.17;;;0.85;;
76171;SDS011;64929;51.178;4.138;2023-03-14T06:37:39;3.35;;;0.40;;
76171;SDS011;64929;51.178;4.138;2023-03-14T06:40:06;0.45;;;0.32;;
76171;SDS011;64929;51.178;4.138;2023-03-14T06:42:32;3.90;;;0.50;;
76171;SDS011;64929;51.178;4.138;2023-03-14T06:44:58;2.25;;;0.50;;
76171;SDS011;64929;51.178;4.138;2023-03-14T06:47:24;3.50;;;1.10;;
76171;SDS011;64929;51.178;4.138;2023-03-14T06:49:49;0.80;;;0.50;;
76171;SDS011;64929;51.178;4.138;2023-03-14T06:52:15;3.35;;;0.82;;
76171;SDS011;64929;51.178;4.138;2023-03-14T06:54:41;2.80;;;0.85;;
76171;SDS011;64929;51.178;4.138;2023-03-14T06:57:06;4.93;;;0.75;;
76171;SDS011;64929;51.178;4.138;2023-03-14T06:59:32;1.38;;;0.75;;
76171;SDS011;64929;51.178;4.138;2023-03-14T07:01:58;2.20;;;0.90;;
76171;SDS011;64929;51.178;4.138;2023-03-14T07:04:23;4.03;;;1.00;;
76171;SDS011;64929;51.178;4.138;2023-03-14T07:06:49;3.15;;;1.02;;
76171;SDS011;64929;51.178;4.138;2023-03-14T07:09:15;3.35;;;1.35;;
76171;SDS011;64929;51.178;4.138;2023-03-14T07:11:42;5.80;;;0.80;;
76171;SDS011;64929;51.178;4.138;2023-03-14T07:14:08;1.33;;;0.90;;
76171;SDS011;64929;51.178;4.138;2023-03-14T07:16:34;5.25;;;0.80;;
76171;SDS011;64929;51.178;4.138;2023-03-14T07:19:00;2.40;;;0.90;;
76171;SDS011;64929;51.178;4.138;2023-03-14T07:21:27;4.13;;;1.20;;
76171;SDS011;64929;51.178;4.138;2023-03-14T07:23:52;4.95;;;0.93;;
76171;SDS011;64929;51.178;4.138;2023-03-14T07:26:18;4.28;;;0.90;;
76171;SDS011;64929;51.178;4.138;2023-03-14T07:28:44;6.15;;;1.13;;
76171;SDS011;64929;51.178;4.138;2023-03-14T07:31:10;1.60;;;0.80;;
76171;SDS011;64929;51.178;4.138;2023-03-14T07:33:36;2.60;;;1.13;;
76171;SDS011;64929;51.178;4.138;2023-03-14T07:36:01;6.75;;;0.90;;
76171;SDS011;64929;51.178;4.138;2023-03-14T07:38:27;3.08;;;1.05;;
76171;SDS011;64929;51.178;4.138;2023-03-14T07:41:03;5.18;;;0.88;;
76171;SDS011;64929;51.178;4.138;2023-03-14T07:43:30;7.85;;;1.20;;
76171;SDS011;64929;51.178;4.138;2023-03-14T07:45:56;4.47;;;1.15;;
76171;SDS011;64929;51.178;4.138;2023-03-14T07:48:22;6.70;;;1.10;;
76171;SDS011;64929;51.178;4.138;2023-03-14T07:50:50;1.38;;;1.00;;
76171;SDS011;64929;51.178;4.138;2023-03-14T07:53:17;2.53;;;0.95;;
76171;SDS011;64929;51.178;4.138;2023-03-14T07:55:43;1.40;;;0.90;;
76171;SDS011;64929;51.178;4.138;2023-03-14T07:58:10;5.28;;;1.48;;
76171;SDS011;64929;51.178;4.138;2023-03-14T08:00:36;2.47;;;1.10;;
76171;SDS011;64929;51.178;4.138;2023-03-14T08:03:01;5.38;;;1.10;;
76171;SDS011;64929;51.178;4.138;2023-03-14T08:05:27;2.22;;;1.23;;
76171;SDS011;64929;51.178;4.138;2023-03-14T08:07:53;7.05;;;1.25;;
76171;SDS011;64929;51.178;4.138;2023-03-14T08:10:19;3.53;;;1.13;;
76171;SDS011;64929;51.178;4.138;2023-03-14T08:12:49;4.93;;;0.80;;
76171;SDS011;64929;51.178;4.138;2023-03-14T08:15:15;3.33;;;0.70;;
76171;SDS011;64929;51.178;4.138;2023-03-14T08:17:41;3.15;;;0.60;;
76171;SDS011;64929;51.178;4.138;2023-03-14T08:20:06;1.67;;;0.50;;
76171;SDS011;64929;51.178;4.138;2023-03-14T08:22:36;1.08;;;0.50;;
76171;SDS011;64929;51.178;4.138;2023-03-14T08:25:02;4.55;;;0.45;;
76171;SDS011;64929;51.178;4.138;2023-03-14T08:27:28;1.10;;;0.50;;
76171;SDS011;64929;51.178;4.138;2023-03-14T08:29:54;1.55;;;0.50;;
76171;SDS011;64929;51.178;4.138;2023-03-14T08:32:19;2.67;;;0.70;;
76171;SDS011;64929;51.178;4.138;2023-03-14T08:34:45;1.55;;;0.50;;
76171;SDS011;64929;51.178;4.138;2023-03-14T08:37:11;2.85;;;0.50;;
76171;SDS011;64929;51.178;4.138;2023-03-14T08:39:37;1.15;;;0.50;;
76171;SDS011;64929;51.178;4.138;2023-03-14T08:42:03;3.38;;;0.63;;
76171;SDS011;64929;51.178;4.138;2023-03-14T08:44:28;2.10;;;0.68;;
76171;SDS011;64929;51.178;4.138;2023-03-14T08:46:54;5.05;;;1.27;;
76171;SDS011;64929;51.178;4.138;2023-03-14T08:49:21;0.68;;;0.50;;
76171;SDS011;64929;51.178;4.138;2023-03-14T08:51:46;1.80;;;0.82;;
76171;SDS011;64929;51.178;4.138;2023-03-14T08:54:12;0.90;;;0.80;;
76171;SDS011;64929;51.178;4.138;2023-03-14T08:56:38;13.00;;;1.75;;
76171;SDS011;64929;51.178;4.138;2023-03-14T08:59:04;3.17;;;0.88;;
76171;SDS011;64929;51.178;4.138;2023-03-14T09:01:30;1.60;;;1.05;;
76171;SDS011;64929;51.178;4.138;2023-03-14T09:03:56;2.15;;;1.20;;
76171;SDS011;64929;51.178;4.138;2023-03-14T09:06:21;2.10;;;1.23;;
76171;SDS011;64929;51.178;4.138;2023-03-14T09:08:47;2.22;;;1.73;;
76171;SDS011;64929;51.178;4.138;2023-03-14T09:11:13;4.47;;;1.60;;
76171;SDS011;64929;51.178;4.138;2023-03-14T09:13:39;6.47;;;1.92;;
76171;SDS011;64929;51.178;4.138;2023-03-14T09:16:05;3.05;;;1.42;;
76171;SDS011;64929;51.178;4.138;2023-03-14T09:18:32;2.72;;;1.27;;
76171;SDS011;64929;51.178;4.138;2023-03-14T09:20:57;5.18;;;1.85;;
76171;SDS011;64929;51.178;4.138;2023-03-14T09:23:23;1.98;;;1.60;;
76171;SDS011;64929;51.178;4.138;2023-03-14T09:25:49;1.92;;;1.25;;
76171;SDS011;64929;51.178;4.138;2023-03-14T09:28:23;1.88;;;1.33;;
76171;SDS011;64929;51.178;4.138;2023-03-14T09:30:48;4.53;;;1.60;;
76171;SDS011;64929;51.178;4.138;2023-03-14T09:33:16;1.55;;;0.90;;
76171;SDS011;64929;51.178;4.138;2023-03-14T09:35:42;1.50;;;0.80;;
76171;SDS011;64929;51.178;4.138;2023-03-14T09:38:08;0.70;;;0.60;;
76171;SDS011;64929;51.178;4.138;2023-03-14T09:40:34;0.88;;;0.70;;
76171;SDS011;64929;51.178;4.138;2023-03-14T09:43:02;1.63;;;1.08;;
76171;SDS011;64929;51.178;4.138;2023-03-14T09:45:31;0.90;;;0.60;;
76171;SDS011;64929;51.178;4.138;2023-03-14T09:48:02;1.65;;;0.98;;
76171;SDS011;64929;51.178;4.138;2023-03-14T09:50:40;2.80;;;1.13;;
76171;SDS011;64929;51.178;4.138;2023-03-14T09:53:18;1.27;;;0.70;;
76171;SDS011;64929;51.178;4.138;2023-03-14T09:56:01;1.58;;;0.43;;
76171;SDS011;64929;51.178;4.138;2023-03-14T09:58:27;2.63;;;0.70;;
76171;SDS011;64929;51.178;4.138;2023-03-14T10:00:54;1.98;;;0.88;;
76171;SDS011;64929;51.178;4.138;2023-03-14T10:05:59;1.15;;;0.70;;
76171;SDS011;64929;51.178;4.138;2023-03-14T10:08:26;3.90;;;0.95;;
76171;SDS011;64929;51.178;4.138;2023-03-14T10:10:52;2.22;;;0.73;;
76171;SDS011;64929;51.178;4.138;2023-03-14T10:16:03;3.33;;;0.52;;
76171;SDS011;64929;51.178;4.138;2023-03-14T10:18:31;3.67;;;0.35;;
76171;SDS011;64929;51.178;4.138;2023-03-14T10:21:04;6.47;;;0.68;;
76171;SDS011;64929;51.178;4.138;2023-03-14T10:23:41;3.03;;;0.60;;
76171;SDS011;64929;51.178;4.138;2023-03-14T10:26:11;3.95;;;0.80;;
76171;SDS011;64929;51.178;4.138;2023-03-14T10:28:43;2.58;;;0.85;;
76171;SDS011;64929;51.178;4.138;2023-03-14T10:31:11;4.35;;;0.70;;
76171;SDS011;64929;51.178;4.138;2023-03-14T10:33:37;1.98;;;0.52;;
76171;SDS011;64929;51.178;4.138;2023-03-14T10:36:14;3.45;;;0.47;;
76171;SDS011;64929;51.178;4.138;2023-03-14T10:38:45;3.90;;;0.68;;
76171;SDS011;64929;51.178;4.138;2023-03-14T10:41:25;4.47;;;1.17;;
76171;SDS011;64929;51.178;4.138;2023-03-14T10:43:58;5.97;;;0.73;;
76171;SDS011;64929;51.178;4.138;2023-03-14T10:46:28;4.50;;;0.85;;
76171;SDS011;64929;51.178;4.138;2023-03-14T10:48:56;2.20;;;0.73;;
76171;SDS011;64929;51.178;4.138;2023-03-14T10:51:28;6.05;;;0.63;;
76171;SDS011;64929;51.178;4.138;2023-03-14T10:53:56;4.60;;;0.40;;
76171;SDS011;64929;51.178;4.138;2023-03-14T10:56:37;3.00;;;0.50;;
76171;SDS011;64929;51.178;4.138;2023-03-14T10:59:04;7.10;;;0.68;;
76171;SDS011;64929;51.178;4.138;2023-03-14T11:04:23;4.20;;;0.50;;
76171;SDS011;64929;51.178;4.138;2023-03-14T11:09:50;7.55;;;1.42;;
76171;SDS011;64929;51.178;4.138;2023-03-14T11:17:57;7.28;;;1.13;;
